Saint Louis, Missouri
Traffic Map
Current Weather Conditions
Saint Louis, Missouri
Clear
Clear
21°
Feels Like: 21°
Wind Chill: 21° Ceiling: Unl
Heat Index: 21° Visibility: 10mi
Dew Point: 18° Wind: 5mph
Humidity: 81% Direction: 150° (SSE)
Pressure: 30.04in Gusts: 0mph
Raw Report DataKCPS 290553Z AUTO 15004KT 10SM CLR 21/18 A3004 RMK AO2 SLP170 T02110178 10278 20206 403000156 51000
Traffic Incident Summary
Active as of:
Severity:
Category:
InformationThere was an issue retrieving the traffic information for this location. Please try a different location or try again shortly.
Advertisements
Track Severe Weather on mobile